sensor_id;sensor_type;location;lat;lon;timestamp;P1;durP1;ratioP1;P2;durP2;ratioP2
65751;SDS011;52486;51.098;13.770;2023-08-17T00:01:47;4.43;;;3.20;;
65751;SDS011;52486;51.098;13.770;2023-08-17T00:04:13;2.92;;;2.72;;
65751;SDS011;52486;51.098;13.770;2023-08-17T00:06:39;3.08;;;2.80;;
65751;SDS011;52486;51.098;13.770;2023-08-17T00:09:06;3.42;;;3.13;;
65751;SDS011;52486;51.098;13.770;2023-08-17T00:11:32;3.92;;;3.08;;
65751;SDS011;52486;51.098;13.770;2023-08-17T00:13:58;3.50;;;3.17;;
65751;SDS011;52486;51.098;13.770;2023-08-17T00:16:24;3.25;;;2.83;;
65751;SDS011;52486;51.098;13.770;2023-08-17T00:18:50;2.90;;;2.70;;
65751;SDS011;52486;51.098;13.770;2023-08-17T00:21:16;2.95;;;2.75;;
65751;SDS011;52486;51.098;13.770;2023-08-17T00:23:42;3.22;;;2.80;;
65751;SDS011;52486;51.098;13.770;2023-08-17T00:26:09;3.25;;;2.78;;
65751;SDS011;52486;51.098;13.770;2023-08-17T00:28:36;3.20;;;2.78;;
65751;SDS011;52486;51.098;13.770;2023-08-17T00:31:02;2.78;;;2.58;;
65751;SDS011;52486;51.098;13.770;2023-08-17T00:33:29;3.10;;;2.75;;
65751;SDS011;52486;51.098;13.770;2023-08-17T00:35:55;3.75;;;2.80;;
65751;SDS011;52486;51.098;13.770;2023-08-17T00:38:21;4.07;;;2.70;;
65751;SDS011;52486;51.098;13.770;2023-08-17T00:40:48;2.90;;;2.70;;
65751;SDS011;52486;51.098;13.770;2023-08-17T00:43:14;3.10;;;2.80;;
65751;SDS011;52486;51.098;13.770;2023-08-17T00:45:41;2.85;;;2.60;;
65751;SDS011;52486;51.098;13.770;2023-08-17T00:48:07;2.80;;;2.60;;
65751;SDS011;52486;51.098;13.770;2023-08-17T00:50:35;2.72;;;2.53;;
65751;SDS011;52486;51.098;13.770;2023-08-17T00:53:02;3.28;;;2.88;;
65751;SDS011;52486;51.098;13.770;2023-08-17T00:55:28;3.90;;;2.70;;
65751;SDS011;52486;51.098;13.770;2023-08-17T00:57:56;2.88;;;2.67;;
65751;SDS011;52486;51.098;13.770;2023-08-17T01:00:22;3.03;;;2.78;;
65751;SDS011;52486;51.098;13.770;2023-08-17T01:02:50;3.00;;;2.67;;
65751;SDS011;52486;51.098;13.770;2023-08-17T01:05:16;3.22;;;2.85;;
65751;SDS011;52486;51.098;13.770;2023-08-17T01:07:43;2.58;;;2.38;;
65751;SDS011;52486;51.098;13.770;2023-08-17T01:10:09;2.72;;;2.53;;
65751;SDS011;52486;51.098;13.770;2023-08-17T01:12:42;2.70;;;2.50;;
65751;SDS011;52486;51.098;13.770;2023-08-17T01:15:11;2.97;;;2.78;;
65751;SDS011;52486;51.098;13.770;2023-08-17T01:17:43;2.83;;;2.63;;
65751;SDS011;52486;51.098;13.770;2023-08-17T01:20:12;3.70;;;2.80;;
65751;SDS011;52486;51.098;13.770;2023-08-17T01:22:40;2.88;;;2.63;;
65751;SDS011;52486;51.098;13.770;2023-08-17T01:25:08;4.82;;;2.97;;
65751;SDS011;52486;51.098;13.770;2023-08-17T01:27:44;2.88;;;2.58;;
65751;SDS011;52486;51.098;13.770;2023-08-17T01:30:15;4.10;;;2.90;;
65751;SDS011;52486;51.098;13.770;2023-08-17T01:35:45;3.05;;;2.75;;
65751;SDS011;52486;51.098;13.770;2023-08-17T01:38:17;2.60;;;2.40;;
65751;SDS011;52486;51.098;13.770;2023-08-17T01:40:44;3.50;;;2.53;;
65751;SDS011;52486;51.098;13.770;2023-08-17T01:43:11;3.13;;;2.83;;
65751;SDS011;52486;51.098;13.770;2023-08-17T01:45:37;3.65;;;3.00;;
65751;SDS011;52486;51.098;13.770;2023-08-17T01:48:04;3.20;;;2.70;;
65751;SDS011;52486;51.098;13.770;2023-08-17T01:50:30;2.78;;;2.58;;
65751;SDS011;52486;51.098;13.770;2023-08-17T01:52:56;3.05;;;2.75;;
65751;SDS011;52486;51.098;13.770;2023-08-17T01:55:22;3.15;;;2.78;;
65751;SDS011;52486;51.098;13.770;2023-08-17T01:57:52;2.90;;;2.58;;
65751;SDS011;52486;51.098;13.770;2023-08-17T02:00:18;3.67;;;2.50;;
65751;SDS011;52486;51.098;13.770;2023-08-17T02:02:44;2.60;;;2.40;;
65751;SDS011;52486;51.098;13.770;2023-08-17T02:05:11;3.05;;;2.85;;
65751;SDS011;52486;51.098;13.770;2023-08-17T02:07:37;3.00;;;2.80;;
65751;SDS011;52486;51.098;13.770;2023-08-17T02:10:03;2.67;;;2.47;;
65751;SDS011;52486;51.098;13.770;2023-08-17T02:12:29;3.28;;;2.70;;
65751;SDS011;52486;51.098;13.770;2023-08-17T02:14:55;2.90;;;2.58;;
65751;SDS011;52486;51.098;13.770;2023-08-17T02:17:21;3.30;;;3.00;;
65751;SDS011;52486;51.098;13.770;2023-08-17T02:19:47;3.13;;;2.58;;
65751;SDS011;52486;51.098;13.770;2023-08-17T02:22:14;3.58;;;2.67;;
65751;SDS011;52486;51.098;13.770;2023-08-17T02:24:40;3.08;;;2.65;;
65751;SDS011;52486;51.098;13.770;2023-08-17T02:27:06;3.65;;;2.58;;
65751;SDS011;52486;51.098;13.770;2023-08-17T02:29:32;3.13;;;2.85;;
65751;SDS011;52486;51.098;13.770;2023-08-17T02:31:58;3.90;;;2.50;;
65751;SDS011;52486;51.098;13.770;2023-08-17T02:34:24;2.85;;;2.60;;
65751;SDS011;52486;51.098;13.770;2023-08-17T02:36:50;2.78;;;2.58;;
65751;SDS011;52486;51.098;13.770;2023-08-17T02:39:16;2.95;;;2.65;;
65751;SDS011;52486;51.098;13.770;2023-08-17T02:41:42;3.65;;;2.70;;
65751;SDS011;52486;51.098;13.770;2023-08-17T02:44:10;2.53;;;2.33;;
65751;SDS011;52486;51.098;13.770;2023-08-17T02:46:36;2.88;;;2.67;;
65751;SDS011;52486;51.098;13.770;2023-08-17T02:49:03;2.90;;;2.60;;
65751;SDS011;52486;51.098;13.770;2023-08-17T02:51:31;3.28;;;2.70;;
65751;SDS011;52486;51.098;13.770;2023-08-17T02:53:57;2.88;;;2.67;;
65751;SDS011;52486;51.098;13.770;2023-08-17T02:56:23;3.38;;;2.40;;
65751;SDS011;52486;51.098;13.770;2023-08-17T02:58:49;2.70;;;2.50;;
65751;SDS011;52486;51.098;13.770;2023-08-17T03:01:15;4.05;;;2.47;;
65751;SDS011;52486;51.098;13.770;2023-08-17T03:03:40;2.80;;;2.60;;
65751;SDS011;52486;51.098;13.770;2023-08-17T03:06:07;2.88;;;2.67;;
65751;SDS011;52486;51.098;13.770;2023-08-17T03:08:33;2.60;;;2.40;;
65751;SDS011;52486;51.098;13.770;2023-08-17T03:11:00;2.88;;;2.60;;
65751;SDS011;52486;51.098;13.770;2023-08-17T03:13:26;2.72;;;2.53;;
65751;SDS011;52486;51.098;13.770;2023-08-17T03:15:52;3.72;;;2.40;;
65751;SDS011;52486;51.098;13.770;2023-08-17T03:18:19;3.85;;;2.75;;
65751;SDS011;52486;51.098;13.770;2023-08-17T03:20:45;3.38;;;2.50;;
65751;SDS011;52486;51.098;13.770;2023-08-17T03:23:11;2.83;;;2.63;;
65751;SDS011;52486;51.098;13.770;2023-08-17T03:25:37;2.50;;;2.30;;
65751;SDS011;52486;51.098;13.770;2023-08-17T03:28:03;2.80;;;2.60;;
65751;SDS011;52486;51.098;13.770;2023-08-17T03:30:29;2.60;;;2.40;;
65751;SDS011;52486;51.098;13.770;2023-08-17T03:32:56;2.58;;;2.42;;
65751;SDS011;52486;51.098;13.770;2023-08-17T03:35:22;3.25;;;2.40;;
65751;SDS011;52486;51.098;13.770;2023-08-17T03:37:48;2.72;;;2.53;;
65751;SDS011;52486;51.098;13.770;2023-08-17T03:40:14;3.72;;;2.42;;
65751;SDS011;52486;51.098;13.770;2023-08-17T03:42:40;2.75;;;2.55;;
65751;SDS011;52486;51.098;13.770;2023-08-17T03:45:06;2.83;;;2.50;;
65751;SDS011;52486;51.098;13.770;2023-08-17T03:47:33;2.60;;;2.40;;
65751;SDS011;52486;51.098;13.770;2023-08-17T03:49:59;3.28;;;2.30;;
65751;SDS011;52486;51.098;13.770;2023-08-17T03:52:25;2.40;;;2.30;;
65751;SDS011;52486;51.098;13.770;2023-08-17T03:54:51;2.60;;;2.40;;
65751;SDS011;52486;51.098;13.770;2023-08-17T03:57:17;2.50;;;2.30;;
65751;SDS011;52486;51.098;13.770;2023-08-17T03:59:45;2.20;;;2.10;;
65751;SDS011;52486;51.098;13.770;2023-08-17T04:02:11;3.47;;;2.47;;
65751;SDS011;52486;51.098;13.770;2023-08-17T04:04:37;2.65;;;2.45;;
65751;SDS011;52486;51.098;13.770;2023-08-17T04:07:03;2.50;;;2.30;;
65751;SDS011;52486;51.098;13.770;2023-08-17T04:09:31;2.60;;;2.40;;
65751;SDS011;52486;51.098;13.770;2023-08-17T04:11:58;2.53;;;2.33;;
65751;SDS011;52486;51.098;13.770;2023-08-17T04:14:24;2.40;;;2.15;;
65751;SDS011;52486;51.098;13.770;2023-08-17T04:16:51;2.72;;;2.42;;
65751;SDS011;52486;51.098;13.770;2023-08-17T04:19:17;3.55;;;2.70;;
65751;SDS011;52486;51.098;13.770;2023-08-17T04:21:42;3.08;;;2.78;;
65751;SDS011;52486;51.098;13.770;2023-08-17T04:24:08;2.45;;;2.25;;
65751;SDS011;52486;51.098;13.770;2023-08-17T04:26:34;2.65;;;2.45;;
65751;SDS011;52486;51.098;13.770;2023-08-17T04:28:59;2.47;;;2.28;;
65751;SDS011;52486;51.098;13.770;2023-08-17T04:31:25;4.03;;;2.42;;
65751;SDS011;52486;51.098;13.770;2023-08-17T04:33:51;2.92;;;2.50;;
65751;SDS011;52486;51.098;13.770;2023-08-17T04:36:17;2.75;;;2.55;;
65751;SDS011;52486;51.098;13.770;2023-08-17T04:38:42;3.03;;;2.50;;
65751;SDS011;52486;51.098;13.770;2023-08-17T04:41:08;2.47;;;2.28;;
65751;SDS011;52486;51.098;13.770;2023-08-17T04:43:34;3.85;;;2.30;;
65751;SDS011;52486;51.098;13.770;2023-08-17T04:46:00;2.97;;;2.67;;
65751;SDS011;52486;51.098;13.770;2023-08-17T04:48:26;2.40;;;2.20;;
65751;SDS011;52486;51.098;13.770;2023-08-17T04:50:51;2.60;;;2.40;;
65751;SDS011;52486;51.098;13.770;2023-08-17T04:53:17;3.13;;;2.50;;
65751;SDS011;52486;51.098;13.770;2023-08-17T04:55:42;2.88;;;2.53;;
65751;SDS011;52486;51.098;13.770;2023-08-17T04:58:08;2.65;;;2.45;;
65751;SDS011;52486;51.098;13.770;2023-08-17T05:00:33;3.10;;;2.80;;
65751;SDS011;52486;51.098;13.770;2023-08-17T05:03:00;3.65;;;2.63;;
65751;SDS011;52486;51.098;13.770;2023-08-17T05:05:26;2.83;;;2.53;;
65751;SDS011;52486;51.098;13.770;2023-08-17T05:07:52;2.90;;;2.70;;
65751;SDS011;52486;51.098;13.770;2023-08-17T05:10:18;2.78;;;2.55;;
65751;SDS011;52486;51.098;13.770;2023-08-17T05:12:43;2.63;;;2.42;;
65751;SDS011;52486;51.098;13.770;2023-08-17T05:15:09;3.00;;;2.65;;
65751;SDS011;52486;51.098;13.770;2023-08-17T05:17:35;3.53;;;2.40;;
65751;SDS011;52486;51.098;13.770;2023-08-17T05:20:01;2.88;;;2.55;;
65751;SDS011;52486;51.098;13.770;2023-08-17T05:22:27;4.15;;;2.95;;
65751;SDS011;52486;51.098;13.770;2023-08-17T05:24:53;3.97;;;3.00;;
65751;SDS011;52486;51.098;13.770;2023-08-17T05:27:19;3.35;;;2.95;;
65751;SDS011;52486;51.098;13.770;2023-08-17T05:29:45;5.47;;;3.30;;
65751;SDS011;52486;51.098;13.770;2023-08-17T05:32:11;4.75;;;3.25;;
65751;SDS011;52486;51.098;13.770;2023-08-17T05:34:37;7.03;;;3.63;;
65751;SDS011;52486;51.098;13.770;2023-08-17T05:37:03;10.80;;;3.60;;
65751;SDS011;52486;51.098;13.770;2023-08-17T05:39:28;6.25;;;3.83;;
65751;SDS011;52486;51.098;13.770;2023-08-17T05:41:54;6.97;;;3.50;;
65751;SDS011;52486;51.098;13.770;2023-08-17T05:44:19;3.60;;;3.22;;
65751;SDS011;52486;51.098;13.770;2023-08-17T05:46:45;4.63;;;3.63;;
65751;SDS011;52486;51.098;13.770;2023-08-17T05:49:12;9.20;;;3.50;;
65751;SDS011;52486;51.098;13.770;2023-08-17T05:51:38;7.60;;;3.50;;
65751;SDS011;52486;51.098;13.770;2023-08-17T05:54:04;6.80;;;3.15;;
65751;SDS011;52486;51.098;13.770;2023-08-17T05:56:31;5.32;;;3.35;;
65751;SDS011;52486;51.098;13.770;2023-08-17T05:58:57;3.42;;;3.13;;
65751;SDS011;52486;51.098;13.770;2023-08-17T06:01:22;5.30;;;3.50;;
65751;SDS011;52486;51.098;13.770;2023-08-17T06:03:48;4.90;;;3.30;;
65751;SDS011;52486;51.098;13.770;2023-08-17T06:06:14;6.30;;;3.60;;
65751;SDS011;52486;51.098;13.770;2023-08-17T06:08:40;8.23;;;3.58;;
65751;SDS011;52486;51.098;13.770;2023-08-17T06:11:06;5.65;;;3.83;;
65751;SDS011;52486;51.098;13.770;2023-08-17T06:13:32;6.75;;;3.92;;
65751;SDS011;52486;51.098;13.770;2023-08-17T06:16:00;8.90;;;3.72;;
65751;SDS011;52486;51.098;13.770;2023-08-17T06:18:26;15.45;;;4.07;;
65751;SDS011;52486;51.098;13.770;2023-08-17T06:20:52;9.20;;;4.00;;
65751;SDS011;52486;51.098;13.770;2023-08-17T06:23:19;11.85;;;4.20;;
65751;SDS011;52486;51.098;13.770;2023-08-17T06:25:45;10.35;;;4.03;;
65751;SDS011;52486;51.098;13.770;2023-08-17T06:28:11;9.65;;;3.97;;
65751;SDS011;52486;51.098;13.770;2023-08-17T06:30:37;13.18;;;4.35;;
65751;SDS011;52486;51.098;13.770;2023-08-17T06:33:03;9.65;;;4.18;;
65751;SDS011;52486;51.098;13.770;2023-08-17T06:35:30;6.38;;;4.15;;
65751;SDS011;52486;51.098;13.770;2023-08-17T06:37:56;6.55;;;3.78;;
65751;SDS011;52486;51.098;13.770;2023-08-17T06:40:23;5.97;;;3.70;;
65751;SDS011;52486;51.098;13.770;2023-08-17T06:42:49;6.47;;;4.00;;
65751;SDS011;52486;51.098;13.770;2023-08-17T06:45:15;5.60;;;4.22;;
65751;SDS011;52486;51.098;13.770;2023-08-17T06:47:44;7.68;;;4.28;;
65751;SDS011;52486;51.098;13.770;2023-08-17T06:50:11;6.43;;;4.35;;
65751;SDS011;52486;51.098;13.770;2023-08-17T06:52:36;7.93;;;4.00;;
65751;SDS011;52486;51.098;13.770;2023-08-17T06:55:02;4.78;;;4.00;;
65751;SDS011;52486;51.098;13.770;2023-08-17T06:57:29;8.07;;;4.25;;
65751;SDS011;52486;51.098;13.770;2023-08-17T06:59:55;9.18;;;4.07;;
65751;SDS011;52486;51.098;13.770;2023-08-17T07:02:22;9.07;;;4.20;;
65751;SDS011;52486;51.098;13.770;2023-08-17T07:04:48;5.68;;;4.15;;
65751;SDS011;52486;51.098;13.770;2023-08-17T07:07:13;8.18;;;4.00;;
65751;SDS011;52486;51.098;13.770;2023-08-17T07:09:39;5.55;;;4.25;;
65751;SDS011;52486;51.098;13.770;2023-08-17T07:12:05;6.22;;;4.32;;
65751;SDS011;52486;51.098;13.770;2023-08-17T07:14:31;6.45;;;4.30;;
65751;SDS011;52486;51.098;13.770;2023-08-17T07:16:58;6.65;;;3.80;;
65751;SDS011;52486;51.098;13.770;2023-08-17T07:19:24;6.93;;;4.00;;
65751;SDS011;52486;51.098;13.770;2023-08-17T07:21:50;5.60;;;3.83;;
65751;SDS011;52486;51.098;13.770;2023-08-17T07:24:17;9.00;;;3.80;;
65751;SDS011;52486;51.098;13.770;2023-08-17T07:26:43;5.32;;;3.95;;
65751;SDS011;52486;51.098;13.770;2023-08-17T07:29:09;5.18;;;4.10;;
65751;SDS011;52486;51.098;13.770;2023-08-17T07:31:36;5.03;;;3.83;;
65751;SDS011;52486;51.098;13.770;2023-08-17T07:34:03;5.10;;;4.18;;
65751;SDS011;52486;51.098;13.770;2023-08-17T07:36:29;6.57;;;4.13;;
65751;SDS011;52486;51.098;13.770;2023-08-17T07:38:55;5.40;;;3.53;;
65751;SDS011;52486;51.098;13.770;2023-08-17T07:41:21;4.07;;;3.67;;
65751;SDS011;52486;51.098;13.770;2023-08-17T07:43:47;6.22;;;4.25;;
65751;SDS011;52486;51.098;13.770;2023-08-17T07:46:13;8.65;;;4.07;;
65751;SDS011;52486;51.098;13.770;2023-08-17T07:48:39;11.50;;;4.13;;
65751;SDS011;52486;51.098;13.770;2023-08-17T07:51:05;14.85;;;4.22;;
65751;SDS011;52486;51.098;13.770;2023-08-17T07:53:31;11.65;;;4.00;;
65751;SDS011;52486;51.098;13.770;2023-08-17T07:55:57;8.88;;;4.40;;
65751;SDS011;52486;51.098;13.770;2023-08-17T07:58:22;8.18;;;4.18;;
65751;SDS011;52486;51.098;13.770;2023-08-17T08:00:48;7.45;;;3.90;;
65751;SDS011;52486;51.098;13.770;2023-08-17T08:03:15;8.23;;;4.30;;
65751;SDS011;52486;51.098;13.770;2023-08-17T08:05:41;17.98;;;4.45;;
65751;SDS011;52486;51.098;13.770;2023-08-17T08:08:07;8.27;;;3.85;;
65751;SDS011;52486;51.098;13.770;2023-08-17T08:10:33;10.43;;;3.75;;
65751;SDS011;52486;51.098;13.770;2023-08-17T08:13:00;16.00;;;3.75;;
65751;SDS011;52486;51.098;13.770;2023-08-17T08:15:25;7.32;;;4.05;;
65751;SDS011;52486;51.098;13.770;2023-08-17T08:17:52;11.15;;;4.00;;
65751;SDS011;52486;51.098;13.770;2023-08-17T08:20:18;11.65;;;4.05;;
65751;SDS011;52486;51.098;13.770;2023-08-17T08:22:44;7.97;;;3.90;;
65751;SDS011;52486;51.098;13.770;2023-08-17T08:25:09;9.68;;;3.88;;
65751;SDS011;52486;51.098;13.770;2023-08-17T08:27:35;7.78;;;3.97;;
65751;SDS011;52486;51.098;13.770;2023-08-17T08:30:01;6.38;;;4.18;;
65751;SDS011;52486;51.098;13.770;2023-08-17T08:32:27;8.40;;;4.07;;
65751;SDS011;52486;51.098;13.770;2023-08-17T08:34:53;9.88;;;4.38;;
65751;SDS011;52486;51.098;13.770;2023-08-17T08:37:19;8.52;;;3.83;;
65751;SDS011;52486;51.098;13.770;2023-08-17T08:39:48;7.15;;;3.67;;
65751;SDS011;52486;51.098;13.770;2023-08-17T08:42:16;8.45;;;3.90;;
65751;SDS011;52486;51.098;13.770;2023-08-17T08:44:42;10.32;;;4.30;;
65751;SDS011;52486;51.098;13.770;2023-08-17T08:47:09;7.03;;;4.40;;
65751;SDS011;52486;51.098;13.770;2023-08-17T08:49:36;5.30;;;4.15;;
65751;SDS011;52486;51.098;13.770;2023-08-17T08:52:05;9.68;;;4.38;;
65751;SDS011;52486;51.098;13.770;2023-08-17T08:54:33;9.23;;;4.18;;
65751;SDS011;52486;51.098;13.770;2023-08-17T08:57:03;6.60;;;4.10;;
65751;SDS011;52486;51.098;13.770;2023-08-17T08:59:33;8.65;;;3.80;;
65751;SDS011;52486;51.098;13.770;2023-08-17T09:01:59;6.50;;;3.70;;
65751;SDS011;52486;51.098;13.770;2023-08-17T09:04:26;7.40;;;3.97;;
65751;SDS011;52486;51.098;13.770;2023-08-17T09:06:53;4.70;;;4.30;;
65751;SDS011;52486;51.098;13.770;2023-08-17T09:09:20;4.03;;;3.70;;
65751;SDS011;52486;51.098;13.770;2023-08-17T09:11:46;5.53;;;3.95;;
65751;SDS011;52486;51.098;13.770;2023-08-17T09:14:12;9.52;;;3.97;;
65751;SDS011;52486;51.098;13.770;2023-08-17T09:16:38;4.57;;;4.18;;
65751;SDS011;52486;51.098;13.770;2023-08-17T09:19:04;5.97;;;4.30;;
65751;SDS011;52486;51.098;13.770;2023-08-17T09:21:31;9.40;;;4.40;;
65751;SDS011;52486;51.098;13.770;2023-08-17T09:23:58;7.60;;;4.15;;
65751;SDS011;52486;51.098;13.770;2023-08-17T09:26:23;5.72;;;3.63;;
65751;SDS011;52486;51.098;13.770;2023-08-17T09:28:50;5.05;;;3.97;;
65751;SDS011;52486;51.098;13.770;2023-08-17T09:31:17;4.30;;;3.90;;
65751;SDS011;52486;51.098;13.770;2023-08-17T09:33:48;5.90;;;3.80;;
65751;SDS011;52486;51.098;13.770;2023-08-17T09:36:25;8.40;;;4.18;;
65751;SDS011;52486;51.098;13.770;2023-08-17T09:38:52;4.88;;;4.10;;
65751;SDS011;52486;51.098;13.770;2023-08-17T09:41:18;11.18;;;4.30;;
65751;SDS011;52486;51.098;13.770;2023-08-17T09:43:44;8.55;;;4.50;;
65751;SDS011;52486;51.098;13.770;2023-08-17T09:46:10;4.22;;;3.83;;
65751;SDS011;52486;51.098;13.770;2023-08-17T09:48:36;4.75;;;3.70;;
65751;SDS011;52486;51.098;13.770;2023-08-17T09:51:03;4.32;;;3.72;;
65751;SDS011;52486;51.098;13.770;2023-08-17T09:53:34;4.20;;;3.85;;
65751;SDS011;52486;51.098;13.770;2023-08-17T09:56:04;4.35;;;3.90;;
65751;SDS011;52486;51.098;13.770;2023-08-17T09:58:30;3.97;;;3.60;;
65751;SDS011;52486;51.098;13.770;2023-08-17T10:00:56;4.88;;;4.05;;
65751;SDS011;52486;51.098;13.770;2023-08-17T10:03:23;5.20;;;3.40;;
65751;SDS011;52486;51.098;13.770;2023-08-17T10:05:53;3.67;;;3.30;;
65751;SDS011;52486;51.098;13.770;2023-08-17T10:08:21;4.15;;;3.50;;
65751;SDS011;52486;51.098;13.770;2023-08-17T10:10:48;3.47;;;3.17;;
65751;SDS011;52486;51.098;13.770;2023-08-17T10:15:57;3.90;;;3.50;;
65751;SDS011;52486;51.098;13.770;2023-08-17T10:18:29;3.00;;;2.80;;
65751;SDS011;52486;51.098;13.770;2023-08-17T10:20:58;3.35;;;3.05;;
65751;SDS011;52486;51.098;13.770;2023-08-17T10:23:31;3.67;;;3.10;;
65751;SDS011;52486;51.098;13.770;2023-08-17T10:25:57;3.90;;;3.33;;
65751;SDS011;52486;51.098;13.770;2023-08-17T10:28:25;4.65;;;3.30;;
65751;SDS011;52486;51.098;13.770;2023-08-17T10:30:51;3.47;;;3.17;;
65751;SDS011;52486;51.098;13.770;2023-08-17T10:33:17;3.20;;;2.92;;
65751;SDS011;52486;51.098;13.770;2023-08-17T10:35:43;3.40;;;3.10;;
65751;SDS011;52486;51.098;13.770;2023-08-17T10:38:10;3.45;;;3.15;;
65751;SDS011;52486;51.098;13.770;2023-08-17T10:40:37;3.22;;;2.90;;
65751;SDS011;52486;51.098;13.770;2023-08-17T10:43:04;3.80;;;3.30;;
65751;SDS011;52486;51.098;13.770;2023-08-17T10:45:31;3.35;;;3.00;;
65751;SDS011;52486;51.098;13.770;2023-08-17T10:50:34;3.50;;;3.10;;
65751;SDS011;52486;51.098;13.770;2023-08-17T10:53:08;3.60;;;3.03;;
65751;SDS011;52486;51.098;13.770;2023-08-17T10:55:38;2.78;;;2.58;;
65751;SDS011;52486;51.098;13.770;2023-08-17T10:58:05;2.80;;;2.60;;
65751;SDS011;52486;51.098;13.770;2023-08-17T11:00:35;3.60;;;2.97;;
65751;SDS011;52486;51.098;13.770;2023-08-17T11:03:03;2.97;;;2.75;;
65751;SDS011;52486;51.098;13.770;2023-08-17T11:08:08;3.25;;;2.60;;
65751;SDS011;52486;51.098;13.770;2023-08-17T11:10:35;3.03;;;2.70;;
65751;SDS011;52486;51.098;13.770;2023-08-17T11:13:01;2.90;;;2.60;;
65751;SDS011;52486;51.098;13.770;2023-08-17T11:15:37;6.95;;;3.28;;
65751;SDS011;52486;51.098;13.770;2023-08-17T11:18:06;3.47;;;2.95;;
65751;SDS011;52486;51.098;13.770;2023-08-17T11:20:33;3.92;;;3.10;;
65751;SDS011;52486;51.098;13.770;2023-08-17T11:22:59;3.35;;;2.72;;
65751;SDS011;52486;51.098;13.770;2023-08-17T11:25:26;7.80;;;3.30;;
65751;SDS011;52486;51.098;13.770;2023-08-17T11:27:52;6.32;;;3.38;;
65751;SDS011;52486;51.098;13.770;2023-08-17T11:30:20;5.10;;;3.38;;
65751;SDS011;52486;51.098;13.770;2023-08-17T11:32:48;5.57;;;3.28;;
65751;SDS011;52486;51.098;13.770;2023-08-17T11:35:16;7.85;;;3.30;;
65751;SDS011;52486;51.098;13.770;2023-08-17T11:37:43;4.47;;;2.78;;
65751;SDS011;52486;51.098;13.770;2023-08-17T11:40:10;3.75;;;3.20;;
65751;SDS011;52486;51.098;13.770;2023-08-17T11:42:37;4.97;;;2.80;;
65751;SDS011;52486;51.098;13.770;2023-08-17T11:45:03;6.07;;;3.20;;
65751;SDS011;52486;51.098;13.770;2023-08-17T11:47:29;2.83;;;2.50;;
65751;SDS011;52486;51.098;13.770;2023-08-17T11:50:00;3.63;;;3.03;;
65751;SDS011;52486;51.098;13.770;2023-08-17T11:52:32;5.13;;;2.90;;
65751;SDS011;52486;51.098;13.770;2023-08-17T11:54:59;4.05;;;3.10;;
65751;SDS011;52486;51.098;13.770;2023-08-17T11:57:26;4.40;;;2.85;;
65751;SDS011;52486;51.098;13.770;2023-08-17T11:59:53;2.97;;;2.50;;
65751;SDS011;52486;51.098;13.770;2023-08-17T12:02:20;4.20;;;2.90;;
65751;SDS011;52486;51.098;13.770;2023-08-17T12:04:47;2.85;;;2.53;;
65751;SDS011;52486;51.098;13.770;2023-08-17T12:07:13;2.95;;;2.65;;
65751;SDS011;52486;51.098;13.770;2023-08-17T12:09:39;11.63;;;2.95;;
65751;SDS011;52486;51.098;13.770;2023-08-17T12:12:06;4.80;;;3.05;;
65751;SDS011;52486;51.098;13.770;2023-08-17T12:14:32;5.38;;;3.30;;
65751;SDS011;52486;51.098;13.770;2023-08-17T12:16:58;8.57;;;3.30;;
65751;SDS011;52486;51.098;13.770;2023-08-17T12:19:24;8.38;;;3.10;;
65751;SDS011;52486;51.098;13.770;2023-08-17T12:21:51;7.57;;;3.10;;
65751;SDS011;52486;51.098;13.770;2023-08-17T12:24:17;6.07;;;3.03;;
65751;SDS011;52486;51.098;13.770;2023-08-17T12:26:45;6.78;;;2.88;;
65751;SDS011;52486;51.098;13.770;2023-08-17T12:29:12;13.65;;;3.47;;
65751;SDS011;52486;51.098;13.770;2023-08-17T12:31:38;8.00;;;3.65;;
65751;SDS011;52486;51.098;13.770;2023-08-17T12:34:04;9.13;;;3.75;;
65751;SDS011;52486;51.098;13.770;2023-08-17T12:36:34;5.18;;;3.38;;
65751;SDS011;52486;51.098;13.770;2023-08-17T12:39:03;5.45;;;3.50;;
65751;SDS011;52486;51.098;13.770;2023-08-17T12:41:30;9.15;;;3.75;;
65751;SDS011;52486;51.098;13.770;2023-08-17T12:43:56;8.25;;;3.50;;
65751;SDS011;52486;51.098;13.770;2023-08-17T12:46:24;6.45;;;3.70;;
65751;SDS011;52486;51.098;13.770;2023-08-17T12:48:50;12.13;;;3.92;;
65751;SDS011;52486;51.098;13.770;2023-08-17T12:51:17;11.90;;;4.07;;
65751;SDS011;52486;51.098;13.770;2023-08-17T12:53:43;9.18;;;4.00;;
65751;SDS011;52486;51.098;13.770;2023-08-17T12:56:09;10.00;;;4.05;;
65751;SDS011;52486;51.098;13.770;2023-08-17T12:58:35;13.23;;;4.53;;
65751;SDS011;52486;51.098;13.770;2023-08-17T13:01:02;9.55;;;4.53;;
65751;SDS011;52486;51.098;13.770;2023-08-17T13:03:28;11.57;;;4.38;;
65751;SDS011;52486;51.098;13.770;2023-08-17T13:05:54;9.10;;;4.80;;
65751;SDS011;52486;51.098;13.770;2023-08-17T13:08:22;6.38;;;4.15;;
65751;SDS011;52486;51.098;13.770;2023-08-17T13:10:48;10.05;;;4.88;;
65751;SDS011;52486;51.098;13.770;2023-08-17T13:13:14;4.30;;;3.83;;
65751;SDS011;52486;51.098;13.770;2023-08-17T13:15:39;7.22;;;4.07;;
65751;SDS011;52486;51.098;13.770;2023-08-17T13:18:07;7.80;;;3.97;;
65751;SDS011;52486;51.098;13.770;2023-08-17T13:20:33;5.18;;;4.10;;
65751;SDS011;52486;51.098;13.770;2023-08-17T13:23:00;6.07;;;4.07;;
65751;SDS011;52486;51.098;13.770;2023-08-17T13:25:26;10.32;;;4.43;;
65751;SDS011;52486;51.098;13.770;2023-08-17T13:27:52;9.13;;;4.00;;
65751;SDS011;52486;51.098;13.770;2023-08-17T13:30:18;11.38;;;4.28;;
65751;SDS011;52486;51.098;13.770;2023-08-17T13:32:44;10.60;;;4.22;;
65751;SDS011;52486;51.098;13.770;2023-08-17T13:35:10;5.25;;;4.30;;
65751;SDS011;52486;51.098;13.770;2023-08-17T13:37:36;11.88;;;4.78;;
65751;SDS011;52486;51.098;13.770;2023-08-17T13:40:03;7.68;;;4.10;;
65751;SDS011;52486;51.098;13.770;2023-08-17T13:42:29;5.82;;;4.22;;
65751;SDS011;52486;51.098;13.770;2023-08-17T13:44:55;7.97;;;4.50;;
65751;SDS011;52486;51.098;13.770;2023-08-17T13:47:22;6.57;;;4.22;;
65751;SDS011;52486;51.098;13.770;2023-08-17T13:49:47;5.40;;;4.53;;
65751;SDS011;52486;51.098;13.770;2023-08-17T13:52:13;9.25;;;4.55;;
65751;SDS011;52486;51.098;13.770;2023-08-17T13:54:39;7.97;;;4.15;;
65751;SDS011;52486;51.098;13.770;2023-08-17T13:57:05;11.15;;;4.68;;
65751;SDS011;52486;51.098;13.770;2023-08-17T13:59:31;5.85;;;4.43;;
65751;SDS011;52486;51.098;13.770;2023-08-17T14:01:59;7.32;;;4.80;;
65751;SDS011;52486;51.098;13.770;2023-08-17T14:04:26;8.32;;;5.03;;
65751;SDS011;52486;51.098;13.770;2023-08-17T14:06:55;5.22;;;4.53;;
65751;SDS011;52486;51.098;13.770;2023-08-17T14:09:21;8.27;;;4.70;;
65751;SDS011;52486;51.098;13.770;2023-08-17T14:11:47;6.80;;;4.28;;
65751;SDS011;52486;51.098;13.770;2023-08-17T14:14:13;8.77;;;4.40;;
65751;SDS011;52486;51.098;13.770;2023-08-17T14:16:39;12.75;;;4.45;;
65751;SDS011;52486;51.098;13.770;2023-08-17T14:19:05;8.32;;;4.25;;
65751;SDS011;52486;51.098;13.770;2023-08-17T14:21:31;8.00;;;4.35;;
65751;SDS011;52486;51.098;13.770;2023-08-17T14:23:57;7.75;;;4.07;;
65751;SDS011;52486;51.098;13.770;2023-08-17T14:26:22;10.70;;;4.07;;
65751;SDS011;52486;51.098;13.770;2023-08-17T14:28:48;7.47;;;4.20;;
65751;SDS011;52486;51.098;13.770;2023-08-17T14:31:14;9.30;;;3.95;;
65751;SDS011;52486;51.098;13.770;2023-08-17T14:33:43;6.05;;;4.13;;
65751;SDS011;52486;51.098;13.770;2023-08-17T14:36:11;6.20;;;3.53;;
65751;SDS011;52486;51.098;13.770;2023-08-17T14:38:37;7.07;;;4.20;;
65751;SDS011;52486;51.098;13.770;2023-08-17T14:41:02;9.02;;;4.60;;